createdAt,value
2023-04-09T00:00:17.672Z,30.07
2023-04-09T00:02:46.191Z,28.90
2023-04-09T00:05:14.265Z,27.73
2023-04-09T00:07:44.576Z,29.17
2023-04-09T00:10:13.015Z,29.43
2023-04-09T00:12:42.580Z,28.27
2023-04-09T00:15:15.031Z,27.10
2023-04-09T00:17:48.610Z,29.33
2023-04-09T00:20:17.368Z,29.00
2023-04-09T00:22:50.013Z,29.20
2023-04-09T00:25:18.988Z,31.60
2023-04-09T00:27:48.755Z,28.93
2023-04-09T00:30:20.437Z,30.27
2023-04-09T00:32:51.372Z,28.40
2023-04-09T00:35:20.878Z,27.37
2023-04-09T00:37:51.794Z,27.87
2023-04-09T00:40:20.060Z,26.27
2023-04-09T00:42:51.854Z,26.47
2023-04-09T00:45:21.098Z,25.20
2023-04-09T00:47:49.205Z,27.50
2023-04-09T00:50:17.893Z,27.97
2023-04-09T00:52:46.579Z,27.60
2023-04-09T00:55:16.840Z,29.13
2023-04-09T00:57:48.962Z,29.87
2023-04-09T01:00:18.856Z,28.93
2023-04-09T01:02:47.820Z,29.93
2023-04-09T01:05:16.581Z,29.70
2023-04-09T01:08:01.461Z,29.13
2023-04-09T01:10:32.109Z,27.33
2023-04-09T01:13:05.743Z,27.17
2023-04-09T01:15:37.218Z,27.93
2023-04-09T01:18:07.998Z,28.00
2023-04-09T01:20:37.415Z,28.57
2023-04-09T01:23:13.719Z,27.57
2023-04-09T01:25:46.836Z,27.17
2023-04-09T01:28:18.635Z,30.03
2023-04-09T01:30:49.614Z,28.03
2023-04-09T01:33:18.996Z,27.80
2023-04-09T01:35:48.203Z,28.13
2023-04-09T01:38:19.884Z,25.20
2023-04-09T01:40:48.261Z,26.70
2023-04-09T01:43:18.137Z,26.63
2023-04-09T01:45:46.625Z,26.73
2023-04-09T01:48:15.003Z,27.43
2023-04-09T01:50:43.162Z,26.63
2023-04-09T01:53:11.618Z,27.60
2023-04-09T01:55:39.857Z,28.80
2023-04-09T01:58:07.846Z,25.63
2023-04-09T02:00:39.876Z,27.30
2023-04-09T02:03:09.935Z,27.20
2023-04-09T02:05:40.400Z,27.53
2023-04-09T02:08:09.620Z,26.60
2023-04-09T02:10:37.841Z,26.13
2023-04-09T02:13:06.437Z,25.80
2023-04-09T02:15:34.730Z,25.40
2023-04-09T02:18:04.870Z,26.33
2023-04-09T02:20:33.018Z,27.27
2023-04-09T02:23:01.192Z,26.03
2023-04-09T02:25:29.199Z,27.23
2023-04-09T02:27:57.238Z,26.40
2023-04-09T02:30:25.603Z,27.93
2023-04-09T02:32:53.735Z,27.37
2023-04-09T02:35:25.553Z,28.50
2023-04-09T02:37:53.650Z,28.53
2023-04-09T02:40:22.392Z,27.27
2023-04-09T02:42:56.784Z,29.03
2023-04-09T02:45:25.195Z,28.37
2023-04-09T02:47:53.906Z,28.40
2023-04-09T02:50:26.936Z,26.80
2023-04-09T02:52:56.919Z,27.00
2023-04-09T02:55:25.372Z,25.90
2023-04-09T02:57:53.788Z,26.37
2023-04-09T03:00:22.245Z,25.43
2023-04-09T03:02:50.577Z,25.83
2023-04-09T03:05:19.024Z,27.10
2023-04-09T03:07:49.743Z,28.33
2023-04-09T03:10:18.217Z,26.93
2023-04-09T03:12:48.337Z,27.97
2023-04-09T03:15:16.924Z,27.07
2023-04-09T03:17:45.076Z,29.17
2023-04-09T03:20:13.381Z,26.67
2023-04-09T03:22:41.916Z,26.20
2023-04-09T03:25:12.318Z,26.53
2023-04-09T03:27:40.541Z,26.67
2023-04-09T03:30:09.864Z,26.97
2023-04-09T03:32:38.040Z,28.10
2023-04-09T03:35:07.117Z,27.70
2023-04-09T03:37:35.095Z,26.43
2023-04-09T03:40:04.154Z,25.60
2023-04-09T03:42:35.169Z,26.13
2023-04-09T03:45:26.312Z,26.40
2023-04-09T03:47:56.794Z,26.57
2023-04-09T03:50:26.174Z,26.17
2023-04-09T03:52:54.544Z,25.27
2023-04-09T03:55:22.929Z,24.73
2023-04-09T03:57:52.753Z,26.00
2023-04-09T04:00:21.002Z,23.77
2023-04-09T04:02:49.407Z,25.13
2023-04-09T04:05:20.518Z,24.20
2023-04-09T04:07:48.996Z,24.47
2023-04-09T04:10:17.273Z,24.33
2023-04-09T04:12:45.730Z,24.37
2023-04-09T04:15:15.218Z,24.10
2023-04-09T04:17:43.921Z,22.03
2023-04-09T04:22:39.384Z,23.70
2023-04-09T04:25:07.573Z,23.57
2023-04-09T04:27:35.396Z,21.87
2023-04-09T04:30:03.023Z,23.10
2023-04-09T04:32:32.198Z,22.90
2023-04-09T04:34:59.843Z,21.87
2023-04-09T04:37:27.702Z,22.23
2023-04-09T04:39:55.343Z,23.07
2023-04-09T04:42:23.337Z,21.93
2023-04-09T04:44:50.953Z,22.03
2023-04-09T04:47:19.430Z,21.20
2023-04-09T04:49:48.458Z,21.00
2023-04-09T04:52:17.788Z,21.80
2023-04-09T04:54:45.524Z,20.10
2023-04-09T04:57:13.327Z,21.43
2023-04-09T04:59:41.300Z,21.33
2023-04-09T05:02:09.206Z,20.20
2023-04-09T05:04:37.115Z,20.77
2023-04-09T05:07:06.351Z,20.77
2023-04-09T05:09:33.987Z,20.50
2023-04-09T05:12:01.751Z,19.10
2023-04-09T05:14:29.417Z,19.23
2023-04-09T05:16:57.232Z,19.17
2023-04-09T05:19:24.936Z,18.93
2023-04-09T05:21:52.706Z,21.50
2023-04-09T05:24:21.834Z,18.83
2023-04-09T05:26:49.487Z,19.77
2023-04-09T05:29:17.667Z,18.47
2023-04-09T05:31:45.611Z,19.80
2023-04-09T05:34:13.362Z,19.97
2023-04-09T05:36:41.219Z,19.17
2023-04-09T05:39:08.987Z,17.17
2023-04-09T05:41:38.705Z,18.43
2023-04-09T05:44:07.898Z,19.07
2023-04-09T05:46:35.632Z,18.50
2023-04-09T05:49:03.489Z,17.77
2023-04-09T05:51:31.268Z,17.60
2023-04-09T05:53:59.284Z,18.73
2023-04-09T05:56:28.000Z,18.00
2023-04-09T05:58:57.208Z,17.73
2023-04-09T06:01:25.026Z,18.57
2023-04-09T06:03:55.312Z,17.77
2023-04-09T06:06:24.926Z,17.43
2023-04-09T06:08:52.751Z,16.43
2023-04-09T06:11:21.302Z,15.43
2023-04-09T06:13:49.085Z,16.67
2023-04-09T06:16:18.146Z,14.90
2023-04-09T06:18:49.535Z,13.93
2023-04-09T06:21:17.418Z,14.27
2023-04-09T06:23:45.056Z,15.17
2023-04-09T06:26:12.805Z,14.73
2023-04-09T06:28:40.444Z,14.63
2023-04-09T06:31:09.316Z,14.07
2023-04-09T06:33:38.361Z,14.33
2023-04-09T06:36:06.778Z,14.97
2023-04-09T06:38:34.472Z,14.13
2023-04-09T06:41:02.300Z,14.43
2023-04-09T06:43:29.938Z,14.50
2023-04-09T06:45:57.923Z,14.57
2023-04-09T06:48:25.617Z,14.93
2023-04-09T06:50:54.853Z,15.80
2023-04-09T06:53:22.785Z,15.77
2023-04-09T06:55:51.273Z,13.67
2023-04-09T06:58:18.957Z,13.77
2023-04-09T07:00:46.784Z,13.03
2023-04-09T07:03:15.515Z,13.07
2023-04-09T07:05:43.474Z,12.33
2023-04-09T07:08:12.934Z,11.87
2023-04-09T07:10:40.813Z,10.77
2023-04-09T07:13:08.648Z,11.73
2023-04-09T07:15:36.719Z,12.30
2023-04-09T10:48:21.937Z,7.68
2023-04-09T10:50:51.835Z,8.45
2023-04-09T10:54:02.758Z,8.10
2023-04-09T10:57:06.250Z,8.20
2023-04-09T11:04:02.105Z,7.57
2023-04-09T11:06:30.075Z,7.53
2023-04-09T11:09:15.291Z,7.20
2023-04-09T11:11:55.808Z,8.23
2023-04-09T11:14:40.753Z,7.97
2023-04-09T11:17:17.619Z,8.10
2023-04-09T11:19:51.430Z,8.05
2023-04-09T11:22:19.365Z,7.75
2023-04-09T11:24:47.845Z,7.45
2023-04-09T11:27:20.019Z,7.63
2023-04-09T11:29:53.200Z,8.07
2023-04-09T11:32:26.155Z,7.65
2023-04-09T11:35:48.736Z,6.82
2023-04-09T11:38:17.205Z,5.78
2023-04-09T11:40:56.056Z,8.27
2023-04-09T11:44:05.016Z,7.25
2023-04-09T11:46:36.680Z,6.60
2023-04-09T11:49:05.994Z,6.95
2023-04-09T11:51:35.453Z,7.75
2023-04-09T11:54:03.714Z,7.45
2023-04-09T11:56:32.498Z,7.63
2023-04-09T11:59:00.310Z,6.88
2023-04-09T12:01:32.396Z,7.13
2023-04-09T12:04:00.746Z,7.57
2023-04-09T12:06:30.453Z,6.80
2023-04-09T12:08:58.815Z,7.68
2023-04-09T12:11:29.283Z,6.03
2023-04-09T12:14:01.481Z,7.70
2023-04-09T12:16:31.516Z,6.80
2023-04-09T12:19:02.372Z,7.43
2023-04-09T12:21:50.180Z,7.03
2023-04-09T12:24:18.357Z,7.13
2023-04-09T12:26:46.383Z,7.35
2023-04-09T12:29:15.159Z,7.37
2023-04-09T12:31:43.250Z,6.90
2023-04-09T12:34:11.070Z,7.13
2023-04-09T12:36:39.692Z,7.23
2023-04-09T12:39:09.970Z,7.00
2023-04-09T12:41:39.299Z,7.68
2023-04-09T12:44:07.695Z,7.20
2023-04-09T12:46:35.655Z,6.70
2023-04-09T12:49:04.369Z,6.93
2023-04-09T12:51:32.731Z,7.17
2023-04-09T12:54:00.894Z,7.13
2023-04-09T12:56:30.278Z,6.87
2023-04-09T12:58:58.171Z,6.90
2023-04-09T13:01:26.030Z,6.67
2023-04-09T13:03:54.380Z,7.50
2023-04-09T13:06:23.229Z,6.93
2023-04-09T13:08:51.570Z,5.80
2023-04-09T13:11:19.435Z,5.77
2023-04-09T13:13:48.700Z,5.93
2023-04-09T13:16:18.479Z,6.80
2023-04-09T13:18:46.294Z,6.13
2023-04-09T13:21:18.848Z,6.53
2023-04-09T13:23:46.731Z,6.03
2023-04-09T13:26:14.578Z,6.65
2023-04-09T13:28:42.430Z,6.53
2023-04-09T13:31:12.044Z,6.70
2023-04-09T13:33:40.738Z,5.80
2023-04-09T13:36:08.978Z,6.38
2023-04-09T13:38:36.952Z,6.00
2023-04-09T13:41:05.018Z,5.45
2023-04-09T13:43:32.835Z,5.57
2023-04-09T13:46:00.845Z,6.33
2023-04-09T13:48:30.119Z,6.03
2023-04-09T13:50:58.134Z,5.83
2023-04-09T13:53:26.149Z,5.57
2023-04-09T13:55:54.010Z,5.33
2023-04-09T13:58:23.575Z,4.97
2023-04-09T14:00:51.376Z,5.33
2023-04-09T14:03:19.525Z,5.33
2023-04-09T14:05:49.925Z,4.63
2023-04-09T14:08:17.811Z,5.20
2023-04-09T14:10:45.624Z,5.33
2023-04-09T14:13:13.848Z,5.13
2023-04-09T14:15:41.991Z,4.70
2023-04-09T14:18:10.216Z,5.07
2023-04-09T14:20:38.458Z,4.53
2023-04-09T14:23:07.969Z,4.43
2023-04-09T14:25:35.816Z,5.17
2023-04-09T14:28:03.935Z,4.60
2023-04-09T14:30:31.725Z,4.90
2023-04-09T14:33:00.049Z,4.93
2023-04-09T14:35:27.889Z,5.23
2023-04-09T14:37:56.794Z,4.97
2023-04-09T14:40:25.952Z,4.87
2023-04-09T14:42:53.835Z,4.60
2023-04-09T14:45:21.874Z,4.77
2023-04-09T14:47:49.913Z,4.73
2023-04-09T14:50:18.024Z,4.40
2023-04-09T14:52:47.467Z,4.50
2023-04-09T14:55:15.565Z,4.97
2023-04-09T14:57:44.751Z,4.50
2023-04-09T15:00:13.585Z,4.20
2023-04-09T15:02:41.837Z,4.40
2023-04-09T15:05:10.997Z,4.50
2023-04-09T15:07:38.768Z,4.73
2023-04-09T15:10:07.713Z,4.13
2023-04-09T15:12:35.558Z,4.50
2023-04-09T15:15:08.616Z,4.67
2023-04-09T15:17:36.953Z,4.13
2023-04-09T15:20:05.553Z,5.17
2023-04-09T15:22:33.895Z,4.83
2023-04-09T15:25:02.061Z,5.30
2023-04-09T15:27:30.151Z,4.70
2023-04-09T15:29:58.308Z,4.63
2023-04-09T15:32:27.488Z,4.53
2023-04-09T15:34:55.674Z,5.13
2023-04-09T15:37:23.815Z,5.20
2023-04-09T15:39:53.412Z,4.67
2023-04-09T15:42:23.160Z,5.00
2023-04-09T15:44:51.614Z,5.63
2023-04-09T15:47:19.396Z,4.73
2023-04-09T15:49:48.742Z,5.40
2023-04-09T15:52:16.663Z,5.00
2023-04-09T15:54:44.833Z,5.37
2023-04-09T15:57:12.573Z,5.17
2023-04-09T15:59:40.691Z,5.73
2023-04-09T16:02:08.483Z,4.90
2023-04-09T16:04:36.506Z,5.40
2023-04-09T16:07:06.117Z,4.97
2023-04-09T16:09:34.046Z,5.83
2023-04-09T16:12:01.875Z,5.83
2023-04-09T16:14:30.362Z,5.63
2023-04-09T16:16:58.193Z,6.23
2023-04-09T16:22:09.977Z,5.77
2023-04-09T17:49:24.924Z,4.97
2023-04-09T17:52:19.209Z,5.30
2023-04-09T18:53:42.094Z,5.30
2023-04-09T19:01:07.259Z,5.70
2023-04-09T19:13:04.121Z,6.40
2023-04-09T19:15:49.236Z,6.93
2023-04-09T19:19:19.119Z,7.30
2023-04-09T19:51:25.717Z,7.70
2023-04-09T19:53:53.659Z,7.13
2023-04-09T19:59:40.001Z,6.60
2023-04-09T20:02:08.077Z,6.83
2023-04-09T20:04:38.209Z,7.93
2023-04-09T20:07:28.293Z,7.00
2023-04-09T20:14:00.358Z,7.73
2023-04-09T20:16:30.295Z,7.60
2023-04-09T20:20:03.207Z,8.50
2023-04-09T20:22:33.103Z,7.50
2023-04-09T20:25:21.446Z,7.67
2023-04-09T20:27:49.894Z,7.00
2023-04-09T20:30:33.050Z,7.73
2023-04-09T20:33:03.354Z,7.10
2023-04-09T20:36:04.673Z,6.90
2023-04-09T20:38:35.602Z,7.47
2023-04-09T20:41:06.604Z,7.30
2023-04-09T20:43:39.254Z,6.93
2023-04-09T20:46:07.323Z,7.60
2023-04-09T20:49:09.887Z,6.67
2023-04-09T20:51:37.925Z,8.17
2023-04-09T20:54:07.412Z,6.67
2023-04-09T20:56:35.512Z,6.60
2023-04-09T20:59:03.580Z,6.87
2023-04-09T21:02:20.180Z,7.70
2023-04-09T21:04:48.241Z,8.03
2023-04-09T21:07:16.202Z,7.13
2023-04-09T21:09:45.361Z,7.47
2023-04-09T21:12:13.300Z,7.67
2023-04-09T21:14:41.198Z,7.87
2023-04-09T21:17:18.290Z,8.27
2023-04-09T21:20:10.980Z,7.27
2023-04-09T21:23:01.356Z,7.60
2023-04-09T21:25:33.415Z,7.50
2023-04-09T21:28:43.341Z,7.73
2023-04-09T21:31:17.479Z,7.40
2023-04-09T21:33:45.479Z,7.93
2023-04-09T21:36:50.591Z,8.20
2023-04-09T21:39:42.564Z,7.17
2023-04-09T21:42:12.049Z,8.20
2023-04-09T21:44:40.129Z,8.23
2023-04-09T22:17:24.220Z,10.17
2023-04-09T22:20:16.818Z,10.37
2023-04-09T22:26:28.774Z,8.70
2023-04-09T22:29:40.742Z,9.37
2023-04-09T22:32:39.475Z,8.87
2023-04-09T22:41:52.211Z,9.03
2023-04-09T22:48:40.665Z,8.93
